createdAt,value
2018-11-21T00:02:14.742Z,96.58
2018-11-21T00:04:43.243Z,96.92
2018-11-21T00:07:11.686Z,96.42
2018-11-21T00:09:40.126Z,96.05
2018-11-21T00:12:08.597Z,96.14
2018-11-21T00:14:37.151Z,95.58
2018-11-21T00:17:05.710Z,95.66
2018-11-21T00:19:34.019Z,95.45
2018-11-21T00:22:02.440Z,95.32
2018-11-21T00:24:31.200Z,95.76
2018-11-21T00:27:00.356Z,94.86
2018-11-21T00:29:28.807Z,95.27
2018-11-21T00:31:57.802Z,95.16
2018-11-21T00:34:26.546Z,95.47
2018-11-21T00:36:55.248Z,95.23
2018-11-21T00:39:24.169Z,94.96
2018-11-21T00:41:52.652Z,94.86
2018-11-21T00:44:21.223Z,94.90
2018-11-21T00:46:50.234Z,94.61
2018-11-21T00:49:18.776Z,94.58
2018-11-21T00:51:47.530Z,94.62
2018-11-21T00:54:16.939Z,94.63
2018-11-21T00:56:45.198Z,94.55
2018-11-21T00:59:14.067Z,94.45
2018-11-21T01:01:42.920Z,94.54
2018-11-21T01:04:11.600Z,94.72
2018-11-21T01:06:40.447Z,94.41
2018-11-21T01:09:09.030Z,94.53
2018-11-21T01:11:37.357Z,94.18
2018-11-21T01:14:05.720Z,94.25
2018-11-21T01:16:33.964Z,94.30
2018-11-21T01:19:02.404Z,94.12
2018-11-21T01:21:30.765Z,94.36
2018-11-21T01:23:59.096Z,94.25
2018-11-21T01:26:27.400Z,94.07
2018-11-21T01:28:56.076Z,94.14
2018-11-21T01:31:24.482Z,94.33
2018-11-21T01:33:52.852Z,94.71
2018-11-21T01:36:21.139Z,94.21
2018-11-21T01:38:49.561Z,94.28
2018-11-21T01:41:17.888Z,94.50
2018-11-21T01:43:46.701Z,94.93
2018-11-21T01:46:15.577Z,94.43
2018-11-21T01:48:44.558Z,94.03
2018-11-21T01:51:13.250Z,94.18
2018-11-21T01:53:42.007Z,94.23
2018-11-21T01:56:10.737Z,94.16
2018-11-21T01:58:39.481Z,93.95
2018-11-21T02:01:08.370Z,94.26
2018-11-21T02:03:37.360Z,93.86
2018-11-21T02:06:06.507Z,94.05
2018-11-21T02:08:35.092Z,94.13
2018-11-21T02:11:03.423Z,93.86
2018-11-21T02:13:32.411Z,94.08
2018-11-21T02:16:01.372Z,94.29
2018-11-21T02:18:30.068Z,93.98
2018-11-21T02:20:59.060Z,93.82
2018-11-21T02:23:27.647Z,93.49
2018-11-21T02:25:55.921Z,93.82
2018-11-21T02:28:25.022Z,93.68
2018-11-21T02:30:53.548Z,93.65
2018-11-21T02:33:22.425Z,93.64
2018-11-21T02:35:51.155Z,94.23
2018-11-21T02:38:19.562Z,93.71
2018-11-21T02:40:48.153Z,93.93
2018-11-21T02:43:16.994Z,94.20
2018-11-21T02:45:45.305Z,93.86
2018-11-21T02:48:13.697Z,93.76
2018-11-21T02:50:42.796Z,93.47
2018-11-21T02:53:11.464Z,93.90
2018-11-21T02:55:40.360Z,93.71
2018-11-21T02:58:08.867Z,93.58
2018-11-21T03:00:37.157Z,93.55
2018-11-21T03:03:06.469Z,93.67
2018-11-21T03:05:35.458Z,93.20
2018-11-21T03:08:03.869Z,93.52
2018-11-21T03:10:32.190Z,93.54
2018-11-21T03:13:01.098Z,93.71
2018-11-21T03:15:29.861Z,93.75
2018-11-21T03:17:58.661Z,94.03
2018-11-21T03:20:27.759Z,93.49
2018-11-21T03:22:56.873Z,93.21
2018-11-21T03:25:25.494Z,93.40
2018-11-21T03:27:54.159Z,93.16
2018-11-21T03:30:23.169Z,93.18
2018-11-21T03:32:51.923Z,93.73
2018-11-21T03:35:20.685Z,93.33
2018-11-21T03:37:49.745Z,93.25
2018-11-21T03:40:18.813Z,94.11
2018-11-21T03:42:47.159Z,93.30
2018-11-21T03:45:15.969Z,93.47
2018-11-21T03:47:44.631Z,93.65
2018-11-21T03:50:13.427Z,92.89
2018-11-21T03:52:42.182Z,93.25
2018-11-21T03:55:11.187Z,93.33
2018-11-21T03:57:40.005Z,93.30
2018-11-21T04:00:13.282Z,92.98
2018-11-21T04:02:42.586Z,93.20
2018-11-21T04:05:12.511Z,93.33
2018-11-21T04:07:40.871Z,93.27
2018-11-21T04:10:11.355Z,92.89
2018-11-21T04:12:39.730Z,93.03
2018-11-21T04:15:09.920Z,92.81
2018-11-21T04:17:38.422Z,92.89
2018-11-21T04:20:07.287Z,93.36
2018-11-21T04:22:35.760Z,93.11
2018-11-21T04:25:04.501Z,92.80
2018-11-21T04:27:32.909Z,93.11
2018-11-21T04:30:01.268Z,93.87
2018-11-21T04:32:29.514Z,92.96
2018-11-21T04:34:57.904Z,92.92
2018-11-21T04:37:26.319Z,93.32
2018-11-21T04:39:54.698Z,93.64
2018-11-21T04:42:23.332Z,92.88
2018-11-21T04:44:51.611Z,92.93
2018-11-21T04:47:20.087Z,93.17
2018-11-21T04:49:48.550Z,93.40
2018-11-21T04:52:17.027Z,93.00
2018-11-21T04:54:45.732Z,93.20
2018-11-21T04:57:14.068Z,92.95
2018-11-21T04:59:42.520Z,93.45
2018-11-21T05:02:10.849Z,93.45
2018-11-21T05:04:39.500Z,93.39
2018-11-21T05:07:08.465Z,93.37
2018-11-21T05:09:37.179Z,94.18
2018-11-21T05:12:05.898Z,93.34
2018-11-21T05:14:35.422Z,93.45
2018-11-21T05:17:04.059Z,93.47
2018-11-21T05:19:32.611Z,93.48
2018-11-21T05:22:01.428Z,93.23
2018-11-21T05:24:29.887Z,93.49
2018-11-21T05:26:58.682Z,93.15
2018-11-21T05:29:27.284Z,93.79
2018-11-21T05:31:55.764Z,93.00
2018-11-21T05:34:24.350Z,92.91
2018-11-21T05:36:52.685Z,93.19
2018-11-21T05:39:21.110Z,93.51
2018-11-21T05:41:49.573Z,93.28
2018-11-21T05:44:17.981Z,93.13
2018-11-21T05:46:46.299Z,93.19
2018-11-21T05:49:14.715Z,93.05
2018-11-21T05:51:43.076Z,92.60
2018-11-21T05:54:11.382Z,92.84
2018-11-21T05:56:39.795Z,92.87
2018-11-21T05:59:08.175Z,92.78
2018-11-21T06:01:36.610Z,92.89
2018-11-21T06:04:04.858Z,92.91
2018-11-21T06:06:33.171Z,93.06
2018-11-21T06:09:01.654Z,93.43
2018-11-21T06:11:30.649Z,93.53
2018-11-21T06:13:58.987Z,94.02
2018-11-21T06:16:28.485Z,94.13
2018-11-21T06:18:57.077Z,94.48
2018-11-21T06:21:25.663Z,94.62
2018-11-21T06:23:54.355Z,94.79
2018-11-21T06:26:23.267Z,94.95
2018-11-21T06:28:51.883Z,95.49
2018-11-21T06:31:20.668Z,95.70
2018-11-21T06:33:49.501Z,95.71
2018-11-21T06:36:21.106Z,95.87
2018-11-21T06:38:49.611Z,95.98
2018-11-21T06:41:18.526Z,96.06
2018-11-21T06:43:51.409Z,96.12
2018-11-21T06:46:20.917Z,96.00
2018-11-21T06:48:50.516Z,95.85
2018-11-21T06:51:18.952Z,95.85
2018-11-21T06:53:47.512Z,96.38
2018-11-21T06:56:15.836Z,96.34
2018-11-21T06:58:44.492Z,96.50
2018-11-21T07:01:13.132Z,96.54
2018-11-21T07:03:41.601Z,96.45
2018-11-21T07:06:10.219Z,96.13
2018-11-21T07:08:38.615Z,96.18
2018-11-21T07:11:07.237Z,96.24
2018-11-21T07:13:35.841Z,96.18
2018-11-21T07:16:04.502Z,96.17
2018-11-21T07:18:32.980Z,96.22
2018-11-21T07:21:02.115Z,96.20
2018-11-21T07:23:30.630Z,96.22
2018-11-21T07:25:59.216Z,96.18
2018-11-21T07:28:27.720Z,96.18
2018-11-21T07:30:56.267Z,96.18
2018-11-21T07:33:24.795Z,96.01
2018-11-21T07:35:53.416Z,96.15
2018-11-21T07:38:22.223Z,96.34
2018-11-21T07:40:50.810Z,95.85
2018-11-21T07:43:19.432Z,96.05
2018-11-21T07:45:47.934Z,96.14
2018-11-21T07:48:20.340Z,96.08
2018-11-21T07:50:45.609Z,96.23
2018-11-21T07:53:14.341Z,96.48
2018-11-21T07:55:43.184Z,96.45
2018-11-21T07:58:13.955Z,96.28
2018-11-21T08:00:57.487Z,96.08
2018-11-21T08:03:27.995Z,96.17
2018-11-21T08:06:02.601Z,96.37
2018-11-21T08:08:51.837Z,96.21
2018-11-21T08:11:37.852Z,96.46
2018-11-21T08:14:31.318Z,96.80
2018-11-21T08:17:18.734Z,97.31
2018-11-21T08:20:07.122Z,97.01
2018-11-21T08:22:53.064Z,96.89
2018-11-21T08:25:39.309Z,97.05
2018-11-21T08:28:35.646Z,97.16
2018-11-21T08:31:04.053Z,97.21
2018-11-21T08:33:34.094Z,97.10
2018-11-21T08:36:01.152Z,97.14
2018-11-21T08:38:29.519Z,96.89
2018-11-21T08:40:57.973Z,96.66
2018-11-21T08:43:26.299Z,96.67
2018-11-21T08:45:54.635Z,96.78
2018-11-21T08:48:23.480Z,96.98
2018-11-21T08:50:52.235Z,96.89
2018-11-21T08:53:21.434Z,96.58
2018-11-21T08:55:50.501Z,97.03
2018-11-21T08:58:19.217Z,96.78
2018-11-21T09:00:49.049Z,97.35
2018-11-21T09:03:18.248Z,97.20
2018-11-21T09:05:46.908Z,97.12
2018-11-21T09:08:15.769Z,96.75
2018-11-21T09:10:44.626Z,96.74
2018-11-21T09:13:14.198Z,96.36
2018-11-21T09:15:43.169Z,96.04
2018-11-21T09:18:11.848Z,96.10
2018-11-21T09:20:40.423Z,95.97
2018-11-21T09:23:09.510Z,95.33
2018-11-21T09:25:38.456Z,95.12
2018-11-21T09:28:07.410Z,95.12
2018-11-21T09:30:36.132Z,94.89
2018-11-21T09:33:05.147Z,94.63
2018-11-21T09:35:34.086Z,94.73
2018-11-21T09:38:02.548Z,94.49
2018-11-21T09:40:31.562Z,94.35
2018-11-21T09:43:00.010Z,94.32
2018-11-21T09:45:28.319Z,94.19
2018-11-21T09:47:56.683Z,94.31
2018-11-21T09:50:26.862Z,94.42
2018-11-21T09:52:55.551Z,94.29
2018-11-21T09:55:23.876Z,94.23
2018-11-21T09:57:52.264Z,94.01
2018-11-21T10:00:56.976Z,93.82
2018-11-21T10:03:27.719Z,93.86
2018-11-21T10:05:59.013Z,93.44
2018-11-21T10:08:40.435Z,93.21
2018-11-21T10:11:09.639Z,92.73
2018-11-21T10:13:38.031Z,92.87
2018-11-21T10:16:07.251Z,92.94
2018-11-21T10:18:36.714Z,92.96
2018-11-21T10:21:06.947Z,93.37
2018-11-21T10:23:35.558Z,93.37
2018-11-21T10:26:04.377Z,93.25
2018-11-21T10:28:32.751Z,92.90
2018-11-21T10:31:01.166Z,92.90
2018-11-21T10:33:29.742Z,92.62
2018-11-21T10:35:58.257Z,92.21
2018-11-21T10:38:26.813Z,92.29
2018-11-21T10:40:55.164Z,92.41
2018-11-21T10:43:26.428Z,92.24
2018-11-21T10:45:52.583Z,92.33
2018-11-21T10:48:21.176Z,92.47
2018-11-21T10:50:49.565Z,92.42
2018-11-21T10:53:18.633Z,92.36
2018-11-21T10:55:47.853Z,92.20
2018-11-21T10:58:16.608Z,92.30
2018-11-21T11:01:03.543Z,92.17
2018-11-21T11:03:40.035Z,91.49
2018-11-21T11:06:26.324Z,91.49
2018-11-21T11:09:12.692Z,91.33
2018-11-21T11:12:00.193Z,91.77
2018-11-21T11:14:50.195Z,91.39
2018-11-21T11:17:36.449Z,91.39
2018-11-21T11:20:24.650Z,91.59
2018-11-21T11:23:10.714Z,91.31
2018-11-21T11:26:06.969Z,91.37
2018-11-21T11:28:52.940Z,91.06
2018-11-21T11:31:29.069Z,91.02
2018-11-21T11:34:27.461Z,91.22
2018-11-21T11:37:24.041Z,91.29
2018-11-21T11:40:10.235Z,90.53
2018-11-21T11:43:00.345Z,90.39
2018-11-21T11:45:47.815Z,90.38
2018-11-21T11:48:47.427Z,90.59
2018-11-21T11:51:43.592Z,90.62
2018-11-21T11:54:30.134Z,90.91
2018-11-21T11:57:17.618Z,90.77
2018-11-21T12:00:20.312Z,90.66
2018-11-21T12:03:13.736Z,90.55
2018-11-21T12:06:06.653Z,90.26
2018-11-21T12:08:47.619Z,90.19
2018-11-21T12:11:30.999Z,90.19
2018-11-21T12:14:23.120Z,90.23
2018-11-21T12:17:10.562Z,89.87
2018-11-21T12:20:00.993Z,89.87
2018-11-21T12:22:46.883Z,90.13
2018-11-21T12:25:43.069Z,90.09
2018-11-21T12:28:29.307Z,90.10
2018-11-21T12:31:22.333Z,89.57
2018-11-21T12:34:07.945Z,89.70
2018-11-21T12:36:54.342Z,89.80
2018-11-21T12:39:41.794Z,90.12
2018-11-21T12:42:26.307Z,89.94
2018-11-21T12:45:16.358Z,89.75
2018-11-21T12:48:02.425Z,90.03
2018-11-21T12:50:55.610Z,90.15
2018-11-21T12:53:49.204Z,89.80
2018-11-21T12:56:35.386Z,89.98
2018-11-21T12:59:37.990Z,89.70
2018-11-21T13:02:24.149Z,89.69
2018-11-21T13:05:09.595Z,90.06
2018-11-21T13:08:03.949Z,90.24
2018-11-21T13:10:49.971Z,90.35
2018-11-21T13:13:35.847Z,90.60
2018-11-21T13:16:22.009Z,90.57
2018-11-21T13:19:15.386Z,90.54
2018-11-21T13:22:02.788Z,90.87
2018-11-21T13:24:40.929Z,91.12
2018-11-21T13:27:27.122Z,91.62
2018-11-21T13:30:13.039Z,91.83
2018-11-21T13:33:03.829Z,92.38
2018-11-21T13:35:44.595Z,92.54
2018-11-21T13:38:38.485Z,92.71
2018-11-21T13:41:25.895Z,92.77
2018-11-21T13:44:13.419Z,92.87
2018-11-21T13:46:59.461Z,92.76
2018-11-21T13:49:45.741Z,92.09
2018-11-21T13:52:25.686Z,92.26
2018-11-21T13:54:58.255Z,92.32
2018-11-21T13:57:26.980Z,92.18
2018-11-21T13:59:55.754Z,92.31
2018-11-21T14:02:24.094Z,91.81
2018-11-21T14:04:52.519Z,91.33
2018-11-21T14:07:20.787Z,91.71
2018-11-21T14:09:49.216Z,91.62
2018-11-21T14:12:17.617Z,91.39
2018-11-21T14:14:45.999Z,91.65
2018-11-21T14:17:14.453Z,91.60
2018-11-21T14:19:42.906Z,91.61
2018-11-21T14:22:11.157Z,91.78
2018-11-21T14:24:39.690Z,92.31
2018-11-21T14:27:07.989Z,92.39
2018-11-21T14:29:36.284Z,92.21
2018-11-21T14:32:05.188Z,92.18
2018-11-21T14:34:34.010Z,92.24
2018-11-21T14:37:03.473Z,92.28
2018-11-21T14:39:31.806Z,92.42
2018-11-21T14:42:00.172Z,92.50
2018-11-21T14:44:28.627Z,92.46
2018-11-21T14:46:58.174Z,92.45
2018-11-21T14:49:26.513Z,92.30
2018-11-21T14:51:55.208Z,92.41
2018-11-21T14:54:23.527Z,92.21
2018-11-21T14:56:51.884Z,91.92
2018-11-21T14:59:20.268Z,91.92
2018-11-21T15:01:48.599Z,91.66
2018-11-21T15:04:17.087Z,91.90
2018-11-21T15:06:45.484Z,92.28
2018-11-21T15:09:14.332Z,92.00
2018-11-21T15:11:43.023Z,91.75
2018-11-21T15:14:11.274Z,91.67
2018-11-21T15:16:39.707Z,91.66
2018-11-21T15:19:08.078Z,91.51
2018-11-21T15:21:36.362Z,91.52
2018-11-21T15:24:04.808Z,91.86
2018-11-21T15:26:33.104Z,92.02
2018-11-21T15:29:01.474Z,92.40
2018-11-21T15:31:29.882Z,92.63
2018-11-21T15:33:58.621Z,92.73
2018-11-21T15:36:28.392Z,92.83
2018-11-21T15:38:56.851Z,92.66
2018-11-21T15:41:24.988Z,92.72
2018-11-21T15:43:53.642Z,92.76
2018-11-21T15:46:22.374Z,92.68
2018-11-21T15:48:51.237Z,92.28
2018-11-21T15:51:19.988Z,92.25
2018-11-21T15:53:48.451Z,92.30
2018-11-21T15:56:16.758Z,92.25
2018-11-21T15:58:45.424Z,92.01
2018-11-21T16:01:13.613Z,92.01
2018-11-21T16:03:41.980Z,92.30
2018-11-21T16:06:10.310Z,92.19
2018-11-21T16:08:38.810Z,92.18
2018-11-21T16:11:07.270Z,92.07
2018-11-21T16:13:35.669Z,92.03
2018-11-21T16:16:04.003Z,92.17
2018-11-21T16:18:32.368Z,92.30
2018-11-21T16:21:00.761Z,92.41
2018-11-21T16:23:29.200Z,92.45
2018-11-21T16:25:57.703Z,92.41
2018-11-21T16:28:26.231Z,92.31
2018-11-21T16:30:54.574Z,92.58
2018-11-21T16:33:22.908Z,92.34
2018-11-21T16:35:51.371Z,92.26
2018-11-21T16:38:19.678Z,92.35
2018-11-21T16:40:48.034Z,92.58
2018-11-21T16:43:16.419Z,92.77
2018-11-21T16:45:46.895Z,92.88
2018-11-21T16:48:15.252Z,92.64
2018-11-21T16:50:43.730Z,92.75
2018-11-21T16:53:11.993Z,92.65
2018-11-21T16:55:40.476Z,92.60
2018-11-21T16:58:08.800Z,92.74
2018-11-21T17:00:37.242Z,93.15
2018-11-21T17:03:05.776Z,93.53
2018-11-21T17:05:34.196Z,93.84
2018-11-21T17:08:02.642Z,94.41
2018-11-21T17:10:31.774Z,94.79
2018-11-21T17:13:00.138Z,95.29
2018-11-21T17:15:30.156Z,96.56
2018-11-21T17:17:58.461Z,96.71
2018-11-21T17:20:28.702Z,97.29
2018-11-21T17:22:57.919Z,97.46
2018-11-21T17:25:28.443Z,97.50
2018-11-21T17:27:56.841Z,97.52
2018-11-21T17:30:25.407Z,97.89
2018-11-21T17:32:54.078Z,97.82
2018-11-21T17:35:22.993Z,97.91
2018-11-21T17:37:51.860Z,98.28
2018-11-21T17:40:28.913Z,98.48
2018-11-21T17:42:57.647Z,98.10
2018-11-21T17:45:26.030Z,97.93
2018-11-21T17:47:54.395Z,98.05
2018-11-21T17:50:23.813Z,98.04
2018-11-21T17:52:54.433Z,97.57
2018-11-21T17:55:24.508Z,97.10
2018-11-21T17:57:52.840Z,97.13
2018-11-21T18:00:22.747Z,96.68
2018-11-21T18:02:51.131Z,96.69
2018-11-21T18:05:21.007Z,96.44
2018-11-21T18:07:49.411Z,96.38
2018-11-21T18:10:19.213Z,96.39
2018-11-21T18:12:47.791Z,95.86
2018-11-21T18:15:16.974Z,96.13
2018-11-21T18:17:49.189Z,96.06
2018-11-21T18:20:18.267Z,96.10
2018-11-21T18:22:47.376Z,96.22
2018-11-21T18:25:20.377Z,96.14
2018-11-21T18:27:57.904Z,96.12
2018-11-21T18:30:27.770Z,96.36
2018-11-21T18:32:56.193Z,96.20
2018-11-21T18:35:25.589Z,96.26
2018-11-21T18:37:54.363Z,96.55
2018-11-21T18:40:25.424Z,96.73
2018-11-21T18:42:54.742Z,96.75
2018-11-21T18:45:29.866Z,96.44
2018-11-21T18:47:58.363Z,96.46
2018-11-21T18:50:26.737Z,96.68
2018-11-21T18:52:56.570Z,96.78
2018-11-21T18:55:27.675Z,96.91
2018-11-21T18:58:39.258Z,97.48
2018-11-21T19:01:07.555Z,97.76
2018-11-21T19:03:36.094Z,98.30
2018-11-21T19:06:04.748Z,98.63
2018-11-21T19:08:33.384Z,99.44
2018-11-21T19:11:02.078Z,99.73
2018-11-21T19:13:31.222Z,100.00
2018-11-21T19:15:59.909Z,100.00
2018-11-21T19:18:29.026Z,100.00
2018-11-21T19:20:57.678Z,100.00
2018-11-21T19:23:26.043Z,100.00
2018-11-21T19:25:55.098Z,100.00
2018-11-21T19:28:24.217Z,100.00
2018-11-21T19:30:52.807Z,100.00
2018-11-21T19:33:21.334Z,100.00
2018-11-21T19:35:49.914Z,100.00
2018-11-21T19:38:20.098Z,100.00
2018-11-21T19:40:48.019Z,100.00
2018-11-21T19:43:16.350Z,100.00
2018-11-21T19:45:45.626Z,100.00
2018-11-21T19:48:14.063Z,100.00
2018-11-21T19:50:42.515Z,100.00
2018-11-21T19:53:11.323Z,100.00
2018-11-21T19:55:39.991Z,100.00
2018-11-21T19:58:08.599Z,100.00
2018-11-21T20:00:38.096Z,100.00
2018-11-21T20:03:07.033Z,100.00
2018-11-21T20:05:35.999Z,100.00
2018-11-21T20:08:04.598Z,100.00
2018-11-21T20:10:33.571Z,100.00
2018-11-21T20:13:02.170Z,100.00
2018-11-21T20:15:30.498Z,100.00
2018-11-21T20:18:00.618Z,100.00
2018-11-21T20:20:29.120Z,100.00
2018-11-21T20:22:57.388Z,100.00
2018-11-21T20:25:26.881Z,100.00
2018-11-21T20:27:55.368Z,100.00
2018-11-21T20:30:25.357Z,100.00
2018-11-21T20:32:55.151Z,100.00
2018-11-21T20:35:23.549Z,100.00
2018-11-21T20:37:52.288Z,100.00
2018-11-21T20:40:23.091Z,100.00
2018-11-21T20:42:51.763Z,100.00
2018-11-21T20:45:21.691Z,100.00
2018-11-21T20:47:51.113Z,100.00
2018-11-21T20:50:19.489Z,100.00
2018-11-21T20:52:48.573Z,100.00
